sensor_id;sensor_type;location;lat;lon;timestamp;temperature;humidity
61392;DHT22;47261;52.892;5.738;2023-02-03T00:01:54;9.30;99.90
61392;DHT22;47261;52.892;5.738;2023-02-03T00:04:19;9.30;99.90
61392;DHT22;47261;52.892;5.738;2023-02-03T00:06:45;9.30;99.90
61392;DHT22;47261;52.892;5.738;2023-02-03T00:09:11;9.30;99.90
61392;DHT22;47261;52.892;5.738;2023-02-03T00:11:37;9.30;99.90
61392;DHT22;47261;52.892;5.738;2023-02-03T00:14:02;9.30;99.90
61392;DHT22;47261;52.892;5.738;2023-02-03T00:16:30;9.30;99.90
61392;DHT22;47261;52.892;5.738;2023-02-03T00:18:55;9.30;99.90
61392;DHT22;47261;52.892;5.738;2023-02-03T00:21:21;9.30;99.90
61392;DHT22;47261;52.892;5.738;2023-02-03T00:23:47;9.30;99.90
61392;DHT22;47261;52.892;5.738;2023-02-03T00:26:15;9.30;99.90
61392;DHT22;47261;52.892;5.738;2023-02-03T00:28:41;9.30;99.90
61392;DHT22;47261;52.892;5.738;2023-02-03T00:31:18;9.40;99.90
61392;DHT22;47261;52.892;5.738;2023-02-03T00:33:44;9.40;99.90
61392;DHT22;47261;52.892;5.738;2023-02-03T00:36:10;9.40;99.90
61392;DHT22;47261;52.892;5.738;2023-02-03T00:38:36;9.50;99.90
61392;DHT22;47261;52.892;5.738;2023-02-03T00:41:02;9.50;99.90
61392;DHT22;47261;52.892;5.738;2023-02-03T00:43:27;9.50;99.90
61392;DHT22;47261;52.892;5.738;2023-02-03T00:45:53;9.50;99.90
61392;DHT22;47261;52.892;5.738;2023-02-03T00:48:18;9.50;99.90
61392;DHT22;47261;52.892;5.738;2023-02-03T00:50:47;9.50;99.90
61392;DHT22;47261;52.892;5.738;2023-02-03T00:53:13;9.60;99.90
61392;DHT22;47261;52.892;5.738;2023-02-03T00:55:42;9.60;99.90
61392;DHT22;47261;52.892;5.738;2023-02-03T00:58:07;9.60;99.90
61392;DHT22;47261;52.892;5.738;2023-02-03T01:00:33;9.60;99.90
61392;DHT22;47261;52.892;5.738;2023-02-03T01:02:58;9.60;99.90
61392;DHT22;47261;52.892;5.738;2023-02-03T01:05:24;9.60;99.90
61392;DHT22;47261;52.892;5.738;2023-02-03T01:07:50;9.60;99.90
61392;DHT22;47261;52.892;5.738;2023-02-03T01:10:16;9.60;99.80
61392;DHT22;47261;52.892;5.738;2023-02-03T01:12:41;9.60;99.70
61392;DHT22;47261;52.892;5.738;2023-02-03T01:15:07;9.60;99.70
61392;DHT22;47261;52.892;5.738;2023-02-03T01:17:33;9.60;99.60
61392;DHT22;47261;52.892;5.738;2023-02-03T01:19:58;9.60;99.70
61392;DHT22;47261;52.892;5.738;2023-02-03T01:22:24;9.50;99.70
61392;DHT22;47261;52.892;5.738;2023-02-03T01:24:50;9.50;99.80
61392;DHT22;47261;52.892;5.738;2023-02-03T01:27:15;9.50;99.90
61392;DHT22;47261;52.892;5.738;2023-02-03T01:29:41;9.50;99.90
61392;DHT22;47261;52.892;5.738;2023-02-03T01:32:07;9.50;99.90
61392;DHT22;47261;52.892;5.738;2023-02-03T01:34:32;9.40;99.90
61392;DHT22;47261;52.892;5.738;2023-02-03T01:36:58;9.50;99.90
61392;DHT22;47261;52.892;5.738;2023-02-03T01:39:24;9.50;99.90
61392;DHT22;47261;52.892;5.738;2023-02-03T01:41:51;9.50;99.90
61392;DHT22;47261;52.892;5.738;2023-02-03T01:44:42;9.50;99.90
61392;DHT22;47261;52.892;5.738;2023-02-03T01:47:25;9.50;99.80
61392;DHT22;47261;52.892;5.738;2023-02-03T01:52:25;9.50;99.60
61392;DHT22;47261;52.892;5.738;2023-02-03T01:54:54;9.50;99.60
61392;DHT22;47261;52.892;5.738;2023-02-03T01:57:25;9.60;99.50
61392;DHT22;47261;52.892;5.738;2023-02-03T01:59:53;9.60;99.40
61392;DHT22;47261;52.892;5.738;2023-02-03T02:02:21;9.60;99.40
61392;DHT22;47261;52.892;5.738;2023-02-03T02:05:04;9.50;99.20
61392;DHT22;47261;52.892;5.738;2023-02-03T02:07:31;9.50;99.30
61392;DHT22;47261;52.892;5.738;2023-02-03T02:09:58;9.50;99.30
61392;DHT22;47261;52.892;5.738;2023-02-03T02:12:24;9.50;99.30
61392;DHT22;47261;52.892;5.738;2023-02-03T02:14:50;9.50;99.40
61392;DHT22;47261;52.892;5.738;2023-02-03T02:34:11;9.30;99.60
61392;DHT22;47261;52.892;5.738;2023-02-03T02:37:17;9.30;99.70
61392;DHT22;47261;52.892;5.738;2023-02-03T02:45:29;9.40;99.80
61392;DHT22;47261;52.892;5.738;2023-02-03T02:48:01;9.50;99.80
61392;DHT22;47261;52.892;5.738;2023-02-03T02:50:33;9.40;99.70
61392;DHT22;47261;52.892;5.738;2023-02-03T02:53:01;9.50;99.70
61392;DHT22;47261;52.892;5.738;2023-02-03T02:55:31;9.50;99.70
61392;DHT22;47261;52.892;5.738;2023-02-03T02:58:03;9.50;99.70
61392;DHT22;47261;52.892;5.738;2023-02-03T03:00:30;9.50;99.60
61392;DHT22;47261;52.892;5.738;2023-02-03T03:02:56;9.50;99.60
61392;DHT22;47261;52.892;5.738;2023-02-03T03:05:22;9.50;99.60
61392;DHT22;47261;52.892;5.738;2023-02-03T03:07:54;9.50;99.60
61392;DHT22;47261;52.892;5.738;2023-02-03T03:10:23;9.50;99.40
61392;DHT22;47261;52.892;5.738;2023-02-03T03:13:00;9.50;99.40
61392;DHT22;47261;52.892;5.738;2023-02-03T03:15:30;9.60;99.40
61392;DHT22;47261;52.892;5.738;2023-02-03T03:18:14;9.50;99.40
61392;DHT22;47261;52.892;5.738;2023-02-03T03:20:41;9.50;99.40
61392;DHT22;47261;52.892;5.738;2023-02-03T03:23:19;9.50;99.40
61392;DHT22;47261;52.892;5.738;2023-02-03T03:25:50;9.50;99.50
61392;DHT22;47261;52.892;5.738;2023-02-03T03:28:29;9.50;99.50
61392;DHT22;47261;52.892;5.738;2023-02-03T03:30:57;9.50;99.50
61392;DHT22;47261;52.892;5.738;2023-02-03T03:33:23;9.40;99.60
61392;DHT22;47261;52.892;5.738;2023-02-03T03:39:08;9.50;99.70
61392;DHT22;47261;52.892;5.738;2023-02-03T03:41:55;9.50;99.70
61392;DHT22;47261;52.892;5.738;2023-02-03T03:44:25;9.50;99.70
61392;DHT22;47261;52.892;5.738;2023-02-03T03:47:11;9.50;99.70
61392;DHT22;47261;52.892;5.738;2023-02-03T03:49:40;9.50;99.70
61392;DHT22;47261;52.892;5.738;2023-02-03T03:52:09;9.50;99.70
61392;DHT22;47261;52.892;5.738;2023-02-03T03:54:40;9.50;99.70
61392;DHT22;47261;52.892;5.738;2023-02-03T03:59:36;9.50;99.70
61392;DHT22;47261;52.892;5.738;2023-02-03T04:02:03;9.50;99.70
61392;DHT22;47261;52.892;5.738;2023-02-03T04:04:31;9.50;99.70
61392;DHT22;47261;52.892;5.738;2023-02-03T04:06:58;9.50;99.70
61392;DHT22;47261;52.892;5.738;2023-02-03T04:09:23;9.50;99.70
61392;DHT22;47261;52.892;5.738;2023-02-03T04:11:49;9.50;99.70
61392;DHT22;47261;52.892;5.738;2023-02-03T04:14:32;9.40;99.80
61392;DHT22;47261;52.892;5.738;2023-02-03T04:16:58;9.40;99.80
61392;DHT22;47261;52.892;5.738;2023-02-03T04:19:24;9.40;99.80
61392;DHT22;47261;52.892;5.738;2023-02-03T04:21:49;9.40;99.90
61392;DHT22;47261;52.892;5.738;2023-02-03T04:24:15;9.30;99.90
61392;DHT22;47261;52.892;5.738;2023-02-03T04:26:41;9.30;99.90
61392;DHT22;47261;52.892;5.738;2023-02-03T04:29:06;9.20;99.90
61392;DHT22;47261;52.892;5.738;2023-02-03T04:31:32;9.20;99.90
61392;DHT22;47261;52.892;5.738;2023-02-03T04:33:58;9.30;99.90
61392;DHT22;47261;52.892;5.738;2023-02-03T04:36:23;9.20;99.90
61392;DHT22;47261;52.892;5.738;2023-02-03T04:38:49;9.20;99.90
61392;DHT22;47261;52.892;5.738;2023-02-03T04:41:15;9.30;99.90
61392;DHT22;47261;52.892;5.738;2023-02-03T04:43:41;9.20;99.90
61392;DHT22;47261;52.892;5.738;2023-02-03T04:46:06;9.20;99.90
61392;DHT22;47261;52.892;5.738;2023-02-03T04:48:32;9.30;99.90
61392;DHT22;47261;52.892;5.738;2023-02-03T04:51:02;9.30;99.90
61392;DHT22;47261;52.892;5.738;2023-02-03T04:53:28;9.30;99.90
61392;DHT22;47261;52.892;5.738;2023-02-03T04:55:54;9.30;99.90
61392;DHT22;47261;52.892;5.738;2023-02-03T04:58:19;9.30;99.90
61392;DHT22;47261;52.892;5.738;2023-02-03T05:00:45;9.30;99.90
61392;DHT22;47261;52.892;5.738;2023-02-03T05:03:10;9.30;99.90
61392;DHT22;47261;52.892;5.738;2023-02-03T05:05:36;9.30;99.90
61392;DHT22;47261;52.892;5.738;2023-02-03T05:08:02;9.30;99.90
61392;DHT22;47261;52.892;5.738;2023-02-03T05:10:27;9.30;99.90
61392;DHT22;47261;52.892;5.738;2023-02-03T05:12:53;9.30;99.90
61392;DHT22;47261;52.892;5.738;2023-02-03T05:15:19;9.40;99.90
61392;DHT22;47261;52.892;5.738;2023-02-03T05:17:44;9.40;99.90
61392;DHT22;47261;52.892;5.738;2023-02-03T05:20:10;9.40;99.90
61392;DHT22;47261;52.892;5.738;2023-02-03T05:22:36;9.40;99.90
61392;DHT22;47261;52.892;5.738;2023-02-03T05:25:02;9.40;99.90
61392;DHT22;47261;52.892;5.738;2023-02-03T05:27:29;9.40;99.90
61392;DHT22;47261;52.892;5.738;2023-02-03T05:29:54;9.40;99.90
61392;DHT22;47261;52.892;5.738;2023-02-03T05:32:20;9.40;99.90
61392;DHT22;47261;52.892;5.738;2023-02-03T05:34:46;9.30;99.90
61392;DHT22;47261;52.892;5.738;2023-02-03T05:37:11;9.40;99.90
61392;DHT22;47261;52.892;5.738;2023-02-03T05:39:37;9.40;99.90
61392;DHT22;47261;52.892;5.738;2023-02-03T05:42:02;9.40;99.90
61392;DHT22;47261;52.892;5.738;2023-02-03T05:44:28;9.40;99.90
61392;DHT22;47261;52.892;5.738;2023-02-03T05:46:56;9.40;99.90
61392;DHT22;47261;52.892;5.738;2023-02-03T05:49:23;9.50;99.90
61392;DHT22;47261;52.892;5.738;2023-02-03T05:51:52;9.50;99.90
61392;DHT22;47261;52.892;5.738;2023-02-03T05:54:18;9.50;99.90
61392;DHT22;47261;52.892;5.738;2023-02-03T05:56:44;9.50;99.90
61392;DHT22;47261;52.892;5.738;2023-02-03T05:59:09;9.50;99.90
61392;DHT22;47261;52.892;5.738;2023-02-03T06:01:35;9.60;99.90
61392;DHT22;47261;52.892;5.738;2023-02-03T06:04:01;9.50;99.90
61392;DHT22;47261;52.892;5.738;2023-02-03T06:06:27;9.50;99.90
61392;DHT22;47261;52.892;5.738;2023-02-03T06:09:03;9.50;99.90
61392;DHT22;47261;52.892;5.738;2023-02-03T06:11:29;9.50;99.90
61392;DHT22;47261;52.892;5.738;2023-02-03T06:13:55;9.50;99.90
61392;DHT22;47261;52.892;5.738;2023-02-03T06:16:23;9.50;99.90
61392;DHT22;47261;52.892;5.738;2023-02-03T06:18:52;9.50;99.90
61392;DHT22;47261;52.892;5.738;2023-02-03T06:21:19;9.50;99.90
61392;DHT22;47261;52.892;5.738;2023-02-03T06:23:45;9.50;99.90
61392;DHT22;47261;52.892;5.738;2023-02-03T06:26:10;9.50;99.90
61392;DHT22;47261;52.892;5.738;2023-02-03T06:28:36;9.40;99.90
61392;DHT22;47261;52.892;5.738;2023-02-03T06:31:05;9.40;99.90
61392;DHT22;47261;52.892;5.738;2023-02-03T06:33:31;9.40;99.90
61392;DHT22;47261;52.892;5.738;2023-02-03T06:35:57;9.40;99.90
61392;DHT22;47261;52.892;5.738;2023-02-03T06:38:23;9.40;99.90
61392;DHT22;47261;52.892;5.738;2023-02-03T06:40:49;9.40;99.90
61392;DHT22;47261;52.892;5.738;2023-02-03T06:43:14;9.40;99.90
61392;DHT22;47261;52.892;5.738;2023-02-03T06:45:40;9.40;99.90
61392;DHT22;47261;52.892;5.738;2023-02-03T06:48:06;9.50;99.90
61392;DHT22;47261;52.892;5.738;2023-02-03T06:50:32;9.50;99.90
61392;DHT22;47261;52.892;5.738;2023-02-03T06:52:58;9.50;99.90
61392;DHT22;47261;52.892;5.738;2023-02-03T06:55:24;9.60;99.90
61392;DHT22;47261;52.892;5.738;2023-02-03T06:57:49;9.60;99.90
61392;DHT22;47261;52.892;5.738;2023-02-03T07:00:17;9.60;99.90
61392;DHT22;47261;52.892;5.738;2023-02-03T07:02:43;9.70;99.90
61392;DHT22;47261;52.892;5.738;2023-02-03T07:05:08;9.70;99.90
61392;DHT22;47261;52.892;5.738;2023-02-03T07:07:35;9.70;99.90
61392;DHT22;47261;52.892;5.738;2023-02-03T07:10:01;9.70;99.90
61392;DHT22;47261;52.892;5.738;2023-02-03T07:12:27;9.70;99.90
61392;DHT22;47261;52.892;5.738;2023-02-03T07:14:53;9.70;99.90
61392;DHT22;47261;52.892;5.738;2023-02-03T07:17:18;9.70;99.90
61392;DHT22;47261;52.892;5.738;2023-02-03T07:19:44;9.70;99.90
61392;DHT22;47261;52.892;5.738;2023-02-03T07:22:10;9.70;99.90
61392;DHT22;47261;52.892;5.738;2023-02-03T07:24:35;9.70;99.90
61392;DHT22;47261;52.892;5.738;2023-02-03T07:27:01;9.70;99.90
61392;DHT22;47261;52.892;5.738;2023-02-03T07:29:27;9.70;99.90
61392;DHT22;47261;52.892;5.738;2023-02-03T07:31:53;9.70;99.90
61392;DHT22;47261;52.892;5.738;2023-02-03T07:34:18;9.70;99.90
61392;DHT22;47261;52.892;5.738;2023-02-03T07:36:44;9.70;99.90
61392;DHT22;47261;52.892;5.738;2023-02-03T07:39:10;9.60;99.90
61392;DHT22;47261;52.892;5.738;2023-02-03T07:41:35;9.60;99.90
61392;DHT22;47261;52.892;5.738;2023-02-03T07:44:01;9.60;99.90
61392;DHT22;47261;52.892;5.738;2023-02-03T07:46:27;9.60;99.90
61392;DHT22;47261;52.892;5.738;2023-02-03T07:48:53;9.60;99.90
61392;DHT22;47261;52.892;5.738;2023-02-03T07:51:18;9.60;99.90
61392;DHT22;47261;52.892;5.738;2023-02-03T07:53:44;9.60;99.90
61392;DHT22;47261;52.892;5.738;2023-02-03T07:56:10;9.60;99.90
61392;DHT22;47261;52.892;5.738;2023-02-03T07:58:36;9.60;99.90
61392;DHT22;47261;52.892;5.738;2023-02-03T08:01:12;9.60;99.90
61392;DHT22;47261;52.892;5.738;2023-02-03T08:03:38;9.60;99.90
61392;DHT22;47261;52.892;5.738;2023-02-03T08:06:04;9.60;99.90
61392;DHT22;47261;52.892;5.738;2023-02-03T08:08:30;9.60;99.90
61392;DHT22;47261;52.892;5.738;2023-02-03T08:10:56;9.60;99.90
61392;DHT22;47261;52.892;5.738;2023-02-03T08:13:21;9.70;99.90
61392;DHT22;47261;52.892;5.738;2023-02-03T08:15:47;9.70;99.90
61392;DHT22;47261;52.892;5.738;2023-02-03T08:18:13;9.70;99.90
61392;DHT22;47261;52.892;5.738;2023-02-03T08:20:39;9.70;99.90
61392;DHT22;47261;52.892;5.738;2023-02-03T08:23:05;9.70;99.90
61392;DHT22;47261;52.892;5.738;2023-02-03T08:25:31;9.70;99.90
61392;DHT22;47261;52.892;5.738;2023-02-03T08:27:57;9.70;99.90
61392;DHT22;47261;52.892;5.738;2023-02-03T08:30:23;9.80;99.90
61392;DHT22;47261;52.892;5.738;2023-02-03T08:32:49;9.80;99.90
61392;DHT22;47261;52.892;5.738;2023-02-03T08:35:14;9.80;99.90
61392;DHT22;47261;52.892;5.738;2023-02-03T08:37:40;9.80;99.90
61392;DHT22;47261;52.892;5.738;2023-02-03T08:40:06;9.80;99.90
61392;DHT22;47261;52.892;5.738;2023-02-03T08:42:32;9.80;99.90
61392;DHT22;47261;52.892;5.738;2023-02-03T08:44:58;9.80;99.90
61392;DHT22;47261;52.892;5.738;2023-02-03T08:47:24;9.80;99.90
61392;DHT22;47261;52.892;5.738;2023-02-03T08:49:50;9.80;99.90
61392;DHT22;47261;52.892;5.738;2023-02-03T08:52:16;9.80;99.90
61392;DHT22;47261;52.892;5.738;2023-02-03T08:54:42;9.80;99.90
61392;DHT22;47261;52.892;5.738;2023-02-03T08:57:08;9.80;99.90
61392;DHT22;47261;52.892;5.738;2023-02-03T08:59:34;9.80;99.90
61392;DHT22;47261;52.892;5.738;2023-02-03T09:02:06;9.80;99.90
61392;DHT22;47261;52.892;5.738;2023-02-03T09:04:32;9.90;99.90
61392;DHT22;47261;52.892;5.738;2023-02-03T09:06:59;9.90;99.90
61392;DHT22;47261;52.892;5.738;2023-02-03T09:09:24;9.90;99.90
61392;DHT22;47261;52.892;5.738;2023-02-03T09:11:51;9.90;99.90
61392;DHT22;47261;52.892;5.738;2023-02-03T09:14:17;9.90;99.90
61392;DHT22;47261;52.892;5.738;2023-02-03T09:16:43;9.90;99.90
61392;DHT22;47261;52.892;5.738;2023-02-03T09:19:09;9.90;99.90
61392;DHT22;47261;52.892;5.738;2023-02-03T09:21:34;9.90;99.90
61392;DHT22;47261;52.892;5.738;2023-02-03T09:24:01;9.80;99.90
61392;DHT22;47261;52.892;5.738;2023-02-03T09:26:27;9.80;99.90
61392;DHT22;47261;52.892;5.738;2023-02-03T09:28:53;9.80;99.90
61392;DHT22;47261;52.892;5.738;2023-02-03T09:31:18;9.80;99.90
61392;DHT22;47261;52.892;5.738;2023-02-03T09:33:45;9.70;99.90
61392;DHT22;47261;52.892;5.738;2023-02-03T09:36:11;9.70;99.90
61392;DHT22;47261;52.892;5.738;2023-02-03T09:38:37;9.70;99.90
61392;DHT22;47261;52.892;5.738;2023-02-03T09:43:52;9.70;99.90
61392;DHT22;47261;52.892;5.738;2023-02-03T09:46:47;9.70;99.90
61392;DHT22;47261;52.892;5.738;2023-02-03T09:49:26;9.70;99.90
61392;DHT22;47261;52.892;5.738;2023-02-03T09:52:07;9.60;99.90
61392;DHT22;47261;52.892;5.738;2023-02-03T09:56:59;9.60;99.90
61392;DHT22;47261;52.892;5.738;2023-02-03T09:59:28;9.70;99.90
61392;DHT22;47261;52.892;5.738;2023-02-03T10:04:43;9.60;99.90
61392;DHT22;47261;52.892;5.738;2023-02-03T10:07:27;9.70;99.90
61392;DHT22;47261;52.892;5.738;2023-02-03T10:16:35;9.70;99.90
61392;DHT22;47261;52.892;5.738;2023-02-03T10:19:10;9.70;99.90
61392;DHT22;47261;52.892;5.738;2023-02-03T10:21:47;9.70;99.90
61392;DHT22;47261;52.892;5.738;2023-02-03T10:27:15;9.80;99.90
61392;DHT22;47261;52.892;5.738;2023-02-03T10:29:42;9.80;99.90
61392;DHT22;47261;52.892;5.738;2023-02-03T10:32:09;9.80;99.90
61392;DHT22;47261;52.892;5.738;2023-02-03T10:34:36;9.80;99.90
61392;DHT22;47261;52.892;5.738;2023-02-03T10:39:53;9.90;99.90
61392;DHT22;47261;52.892;5.738;2023-02-03T10:42:20;9.90;99.90
61392;DHT22;47261;52.892;5.738;2023-02-03T10:44:57;9.90;99.90
61392;DHT22;47261;52.892;5.738;2023-02-03T10:47:35;9.90;99.90
61392;DHT22;47261;52.892;5.738;2023-02-03T10:50:13;9.90;99.90
61392;DHT22;47261;52.892;5.738;2023-02-03T10:52:39;9.90;99.90
61392;DHT22;47261;52.892;5.738;2023-02-03T10:57:52;9.90;99.90
61392;DHT22;47261;52.892;5.738;2023-02-03T11:00:31;9.90;99.90
61392;DHT22;47261;52.892;5.738;2023-02-03T11:03:27;9.90;99.90
61392;DHT22;47261;52.892;5.738;2023-02-03T11:06:03;9.90;99.90
61392;DHT22;47261;52.892;5.738;2023-02-03T11:08:30;9.90;99.90
61392;DHT22;47261;52.892;5.738;2023-02-03T11:11:08;9.90;99.90
61392;DHT22;47261;52.892;5.738;2023-02-03T11:13:35;9.90;99.90
61392;DHT22;47261;52.892;5.738;2023-02-03T11:16:01;9.90;99.90
61392;DHT22;47261;52.892;5.738;2023-02-03T11:21:30;10.00;99.90
61392;DHT22;47261;52.892;5.738;2023-02-03T11:24:04;10.00;99.90
61392;DHT22;47261;52.892;5.738;2023-02-03T11:26:39;10.00;99.90
61392;DHT22;47261;52.892;5.738;2023-02-03T11:29:06;10.00;99.90
61392;DHT22;47261;52.892;5.738;2023-02-03T11:31:39;9.90;99.90
61392;DHT22;47261;52.892;5.738;2023-02-03T11:34:20;10.00;99.90
61392;DHT22;47261;52.892;5.738;2023-02-03T11:36:48;10.00;99.90
61392;DHT22;47261;52.892;5.738;2023-02-03T11:39:24;10.00;99.90
61392;DHT22;47261;52.892;5.738;2023-02-03T11:41:50;10.00;99.90
61392;DHT22;47261;52.892;5.738;2023-02-03T11:44:24;10.00;99.90
61392;DHT22;47261;52.892;5.738;2023-02-03T11:47:03;10.00;99.90
61392;DHT22;47261;52.892;5.738;2023-02-03T11:57:27;10.00;99.90
61392;DHT22;47261;52.892;5.738;2023-02-03T12:00:23;10.00;99.90
61392;DHT22;47261;52.892;5.738;2023-02-03T12:05:58;10.00;99.90
61392;DHT22;47261;52.892;5.738;2023-02-03T12:08:39;10.00;99.90
61392;DHT22;47261;52.892;5.738;2023-02-03T12:11:56;10.00;99.90
61392;DHT22;47261;52.892;5.738;2023-02-03T12:14:32;10.00;99.90
61392;DHT22;47261;52.892;5.738;2023-02-03T12:17:05;10.00;99.90
61392;DHT22;47261;52.892;5.738;2023-02-03T12:28:03;10.00;99.90
61392;DHT22;47261;52.892;5.738;2023-02-03T12:30:39;10.00;99.90
61392;DHT22;47261;52.892;5.738;2023-02-03T12:33:24;10.00;99.90
61392;DHT22;47261;52.892;5.738;2023-02-03T12:36:17;10.00;99.90
61392;DHT22;47261;52.892;5.738;2023-02-03T12:41:43;9.90;99.80
61392;DHT22;47261;52.892;5.738;2023-02-03T12:44:27;10.00;99.70
61392;DHT22;47261;52.892;5.738;2023-02-03T12:49:34;10.00;99.60
61392;DHT22;47261;52.892;5.738;2023-02-03T12:57:26;10.00;99.30
61392;DHT22;47261;52.892;5.738;2023-02-03T13:00:21;10.00;99.30
61392;DHT22;47261;52.892;5.738;2023-02-03T13:05:31;9.90;99.10
61392;DHT22;47261;52.892;5.738;2023-02-03T13:08:29;9.90;99.10
61392;DHT22;47261;52.892;5.738;2023-02-03T13:11:09;9.90;99.10
61392;DHT22;47261;52.892;5.738;2023-02-03T13:14:03;9.80;99.00
61392;DHT22;47261;52.892;5.738;2023-02-03T13:16:34;9.80;99.00
61392;DHT22;47261;52.892;5.738;2023-02-03T13:19:06;9.80;98.80
61392;DHT22;47261;52.892;5.738;2023-02-03T13:21:32;9.80;98.70
61392;DHT22;47261;52.892;5.738;2023-02-03T13:23:58;9.80;98.70
61392;DHT22;47261;52.892;5.738;2023-02-03T13:32:22;9.80;98.30
61392;DHT22;47261;52.892;5.738;2023-02-03T13:35:19;9.70;98.30
61392;DHT22;47261;52.892;5.738;2023-02-03T13:38:23;9.70;98.40
61392;DHT22;47261;52.892;5.738;2023-02-03T13:43:30;9.70;98.60
61392;DHT22;47261;52.892;5.738;2023-02-03T13:45:57;9.80;98.60
61392;DHT22;47261;52.892;5.738;2023-02-03T13:48:26;9.90;98.60
61392;DHT22;47261;52.892;5.738;2023-02-03T13:53:34;10.00;97.80
61392;DHT22;47261;52.892;5.738;2023-02-03T13:56:02;10.00;97.60
61392;DHT22;47261;52.892;5.738;2023-02-03T13:58:34;10.10;97.70
61392;DHT22;47261;52.892;5.738;2023-02-03T14:03:48;10.10;97.20
61392;DHT22;47261;52.892;5.738;2023-02-03T14:11:49;10.10;97.00
61392;DHT22;47261;52.892;5.738;2023-02-03T14:16:46;10.10;96.40
61392;DHT22;47261;52.892;5.738;2023-02-03T14:22:03;10.00;96.50
61392;DHT22;47261;52.892;5.738;2023-02-03T14:24:36;10.00;96.50
61392;DHT22;47261;52.892;5.738;2023-02-03T14:27:14;10.00;96.90
61392;DHT22;47261;52.892;5.738;2023-02-03T14:29:41;9.90;96.70
61392;DHT22;47261;52.892;5.738;2023-02-03T14:32:08;9.90;96.90
61392;DHT22;47261;52.892;5.738;2023-02-03T14:34:40;9.90;97.00
61392;DHT22;47261;52.892;5.738;2023-02-03T14:37:11;9.90;97.00
61392;DHT22;47261;52.892;5.738;2023-02-03T14:45:33;9.70;97.10
61392;DHT22;47261;52.892;5.738;2023-02-03T14:54:32;9.60;97.20
61392;DHT22;47261;52.892;5.738;2023-02-03T15:02:31;9.40;97.40
61392;DHT22;47261;52.892;5.738;2023-02-03T15:07:46;9.30;97.60
61392;DHT22;47261;52.892;5.738;2023-02-03T15:10:18;9.30;97.70
61392;DHT22;47261;52.892;5.738;2023-02-03T15:12:47;9.20;97.70
61392;DHT22;47261;52.892;5.738;2023-02-03T15:15:27;9.20;97.80
61392;DHT22;47261;52.892;5.738;2023-02-03T15:17:58;9.20;97.90
61392;DHT22;47261;52.892;5.738;2023-02-03T15:20:29;9.10;97.80
61392;DHT22;47261;52.892;5.738;2023-02-03T15:22:55;9.10;97.80
61392;DHT22;47261;52.892;5.738;2023-02-03T15:25:22;9.10;97.80
61392;DHT22;47261;52.892;5.738;2023-02-03T15:27:50;9.10;97.80
61392;DHT22;47261;52.892;5.738;2023-02-03T15:30:18;9.10;97.80
61392;DHT22;47261;52.892;5.738;2023-02-03T15:33:00;9.00;97.80
61392;DHT22;47261;52.892;5.738;2023-02-03T15:35:31;9.00;97.80
61392;DHT22;47261;52.892;5.738;2023-02-03T15:38:17;9.00;97.90
61392;DHT22;47261;52.892;5.738;2023-02-03T15:40:52;9.00;98.10
61392;DHT22;47261;52.892;5.738;2023-02-03T15:43:35;8.90;98.20
61392;DHT22;47261;52.892;5.738;2023-02-03T15:46:15;8.90;98.60
61392;DHT22;47261;52.892;5.738;2023-02-03T15:49:02;8.80;98.50
61392;DHT22;47261;52.892;5.738;2023-02-03T15:51:49;8.80;98.70
61392;DHT22;47261;52.892;5.738;2023-02-03T15:54:32;8.80;98.80
61392;DHT22;47261;52.892;5.738;2023-02-03T15:57:13;8.80;98.90
61392;DHT22;47261;52.892;5.738;2023-02-03T15:59:42;8.80;98.90
61392;DHT22;47261;52.892;5.738;2023-02-03T16:02:29;8.70;98.90
61392;DHT22;47261;52.892;5.738;2023-02-03T16:04:56;8.70;98.90
61392;DHT22;47261;52.892;5.738;2023-02-03T16:07:24;8.70;99.00
61392;DHT22;47261;52.892;5.738;2023-02-03T16:09:58;8.60;99.10
61392;DHT22;47261;52.892;5.738;2023-02-03T16:12:26;8.70;99.30
61392;DHT22;47261;52.892;5.738;2023-02-03T16:14:53;8.60;99.40
61392;DHT22;47261;52.892;5.738;2023-02-03T16:17:24;8.60;99.50
61392;DHT22;47261;52.892;5.738;2023-02-03T16:19:51;8.60;99.60
61392;DHT22;47261;52.892;5.738;2023-02-03T16:22:30;8.60;99.60
61392;DHT22;47261;52.892;5.738;2023-02-03T16:25:19;8.50;99.70
61392;DHT22;47261;52.892;5.738;2023-02-03T16:27:59;8.50;99.80
61392;DHT22;47261;52.892;5.738;2023-02-03T16:33:46;8.50;99.90
61392;DHT22;47261;52.892;5.738;2023-02-03T16:36:30;8.50;99.90
61392;DHT22;47261;52.892;5.738;2023-02-03T16:39:15;8.50;99.90
61392;DHT22;47261;52.892;5.738;2023-02-03T16:42:00;8.40;99.90
61392;DHT22;47261;52.892;5.738;2023-02-03T16:44:49;8.40;99.90
61392;DHT22;47261;52.892;5.738;2023-02-03T16:47:36;8.40;99.90
61392;DHT22;47261;52.892;5.738;2023-02-03T16:50:22;8.40;99.90
61392;DHT22;47261;52.892;5.738;2023-02-03T16:53:16;8.40;99.90
61392;DHT22;47261;52.892;5.738;2023-02-03T16:55:42;8.30;99.90
61392;DHT22;47261;52.892;5.738;2023-02-03T16:58:08;8.30;99.90
61392;DHT22;47261;52.892;5.738;2023-02-03T17:00:36;8.30;99.90
61392;DHT22;47261;52.892;5.738;2023-02-03T17:03:06;8.20;99.90
61392;DHT22;47261;52.892;5.738;2023-02-03T17:05:36;8.20;99.90
61392;DHT22;47261;52.892;5.738;2023-02-03T17:08:02;8.20;99.90
61392;DHT22;47261;52.892;5.738;2023-02-03T17:10:28;8.10;99.90
61392;DHT22;47261;52.892;5.738;2023-02-03T17:12:53;8.10;99.90
61392;DHT22;47261;52.892;5.738;2023-02-03T17:15:19;8.10;99.90
61392;DHT22;47261;52.892;5.738;2023-02-03T17:17:45;8.10;99.90
61392;DHT22;47261;52.892;5.738;2023-02-03T17:20:11;8.00;99.90
61392;DHT22;47261;52.892;5.738;2023-02-03T17:22:37;8.00;99.90
61392;DHT22;47261;52.892;5.738;2023-02-03T17:25:02;8.00;99.90
61392;DHT22;47261;52.892;5.738;2023-02-03T17:27:28;8.00;99.90
61392;DHT22;47261;52.892;5.738;2023-02-03T17:29:54;8.00;99.90
61392;DHT22;47261;52.892;5.738;2023-02-03T17:32:20;8.00;99.90
61392;DHT22;47261;52.892;5.738;2023-02-03T17:34:45;8.00;99.90
61392;DHT22;47261;52.892;5.738;2023-02-03T17:37:11;8.00;99.90
61392;DHT22;47261;52.892;5.738;2023-02-03T17:39:37;8.10;99.90
61392;DHT22;47261;52.892;5.738;2023-02-03T17:42:02;8.10;99.90
61392;DHT22;47261;52.892;5.738;2023-02-03T17:44:28;8.10;99.90
61392;DHT22;47261;52.892;5.738;2023-02-03T17:46:54;8.10;99.90
61392;DHT22;47261;52.892;5.738;2023-02-03T17:49:19;8.10;99.90
61392;DHT22;47261;52.892;5.738;2023-02-03T17:51:45;8.10;99.90
61392;DHT22;47261;52.892;5.738;2023-02-03T17:54:10;8.20;99.90
61392;DHT22;47261;52.892;5.738;2023-02-03T17:56:36;8.20;99.90
61392;DHT22;47261;52.892;5.738;2023-02-03T17:59:03;8.20;99.90
61392;DHT22;47261;52.892;5.738;2023-02-03T18:01:30;8.20;99.90
61392;DHT22;47261;52.892;5.738;2023-02-03T18:04:01;8.20;99.90
61392;DHT22;47261;52.892;5.738;2023-02-03T18:06:28;8.20;99.90
61392;DHT22;47261;52.892;5.738;2023-02-03T18:08:55;8.20;99.90
61392;DHT22;47261;52.892;5.738;2023-02-03T18:11:26;8.20;99.90
61392;DHT22;47261;52.892;5.738;2023-02-03T18:13:52;8.20;99.90
61392;DHT22;47261;52.892;5.738;2023-02-03T18:16:20;8.20;99.90
61392;DHT22;47261;52.892;5.738;2023-02-03T18:18:55;8.20;99.90
61392;DHT22;47261;52.892;5.738;2023-02-03T18:21:23;8.20;99.90